sensor_id;sensor_type;location;lat;lon;timestamp;P1;durP1;ratioP1;P2;durP2;ratioP2
4377;SDS011;2203;53.686;9.994;2024-03-08T00:01:06;28.73;;;14.50;;
4377;SDS011;2203;53.686;9.994;2024-03-08T00:03:32;28.70;;;13.60;;
4377;SDS011;2203;53.686;9.994;2024-03-08T00:05:57;29.87;;;15.00;;
4377;SDS011;2203;53.686;9.994;2024-03-08T00:08:23;31.70;;;13.57;;
4377;SDS011;2203;53.686;9.994;2024-03-08T00:10:48;27.57;;;13.97;;
4377;SDS011;2203;53.686;9.994;2024-03-08T00:13:14;27.53;;;13.60;;
4377;SDS011;2203;53.686;9.994;2024-03-08T00:15:39;30.47;;;14.57;;
4377;SDS011;2203;53.686;9.994;2024-03-08T00:18:06;28.37;;;14.13;;
4377;SDS011;2203;53.686;9.994;2024-03-08T00:20:31;28.90;;;15.00;;
4377;SDS011;2203;53.686;9.994;2024-03-08T00:22:57;28.63;;;13.83;;
4377;SDS011;2203;53.686;9.994;2024-03-08T00:25:23;34.97;;;13.67;;
4377;SDS011;2203;53.686;9.994;2024-03-08T00:27:48;25.00;;;13.60;;
4377;SDS011;2203;53.686;9.994;2024-03-08T00:30:14;32.63;;;14.97;;
4377;SDS011;2203;53.686;9.994;2024-03-08T00:32:40;33.90;;;14.30;;
4377;SDS011;2203;53.686;9.994;2024-03-08T00:35:06;28.63;;;13.13;;
4377;SDS011;2203;53.686;9.994;2024-03-08T00:37:34;27.17;;;12.93;;
4377;SDS011;2203;53.686;9.994;2024-03-08T00:40:00;28.23;;;14.10;;
4377;SDS011;2203;53.686;9.994;2024-03-08T00:42:25;36.70;;;13.70;;
4377;SDS011;2203;53.686;9.994;2024-03-08T00:44:51;29.90;;;14.67;;
4377;SDS011;2203;53.686;9.994;2024-03-08T00:47:16;26.10;;;13.80;;
4377;SDS011;2203;53.686;9.994;2024-03-08T00:49:42;30.50;;;14.43;;
4377;SDS011;2203;53.686;9.994;2024-03-08T00:52:08;30.77;;;14.10;;
4377;SDS011;2203;53.686;9.994;2024-03-08T00:54:36;30.30;;;14.57;;
4377;SDS011;2203;53.686;9.994;2024-03-08T00:57:02;30.77;;;13.30;;
4377;SDS011;2203;53.686;9.994;2024-03-08T00:59:30;31.47;;;14.73;;
4377;SDS011;2203;53.686;9.994;2024-03-08T01:01:59;28.73;;;14.20;;
4377;SDS011;2203;53.686;9.994;2024-03-08T01:04:25;31.20;;;14.23;;
4377;SDS011;2203;53.686;9.994;2024-03-08T01:06:53;35.87;;;15.57;;
4377;SDS011;2203;53.686;9.994;2024-03-08T01:09:21;27.70;;;14.57;;
4377;SDS011;2203;53.686;9.994;2024-03-08T01:11:47;31.47;;;13.97;;
4377;SDS011;2203;53.686;9.994;2024-03-08T01:14:12;28.37;;;13.30;;
4377;SDS011;2203;53.686;9.994;2024-03-08T01:16:38;26.17;;;14.10;;
4377;SDS011;2203;53.686;9.994;2024-03-08T01:19:03;27.83;;;14.63;;
4377;SDS011;2203;53.686;9.994;2024-03-08T01:21:28;28.20;;;13.83;;
4377;SDS011;2203;53.686;9.994;2024-03-08T01:23:54;30.80;;;13.83;;
4377;SDS011;2203;53.686;9.994;2024-03-08T01:26:19;24.00;;;13.77;;
4377;SDS011;2203;53.686;9.994;2024-03-08T01:28:45;28.90;;;14.70;;
4377;SDS011;2203;53.686;9.994;2024-03-08T01:31:10;31.20;;;15.90;;
4377;SDS011;2203;53.686;9.994;2024-03-08T01:33:35;31.50;;;14.53;;
4377;SDS011;2203;53.686;9.994;2024-03-08T01:36:01;26.00;;;13.27;;
4377;SDS011;2203;53.686;9.994;2024-03-08T01:38:27;31.33;;;13.33;;
4377;SDS011;2203;53.686;9.994;2024-03-08T01:40:52;31.27;;;14.00;;
4377;SDS011;2203;53.686;9.994;2024-03-08T01:43:19;30.47;;;14.60;;
4377;SDS011;2203;53.686;9.994;2024-03-08T01:45:48;31.73;;;15.40;;
4377;SDS011;2203;53.686;9.994;2024-03-08T01:48:16;36.47;;;14.03;;
4377;SDS011;2203;53.686;9.994;2024-03-08T01:50:42;25.93;;;13.67;;
4377;SDS011;2203;53.686;9.994;2024-03-08T01:53:08;33.90;;;14.30;;
4377;SDS011;2203;53.686;9.994;2024-03-08T01:55:38;26.80;;;14.70;;
4377;SDS011;2203;53.686;9.994;2024-03-08T01:58:06;29.50;;;14.97;;
4377;SDS011;2203;53.686;9.994;2024-03-08T02:00:35;34.43;;;15.03;;
4377;SDS011;2203;53.686;9.994;2024-03-08T02:03:01;28.30;;;14.37;;
4377;SDS011;2203;53.686;9.994;2024-03-08T02:05:26;28.37;;;14.57;;
4377;SDS011;2203;53.686;9.994;2024-03-08T02:07:52;32.17;;;14.20;;
4377;SDS011;2203;53.686;9.994;2024-03-08T02:10:17;27.27;;;13.40;;
4377;SDS011;2203;53.686;9.994;2024-03-08T02:12:43;27.70;;;14.00;;
4377;SDS011;2203;53.686;9.994;2024-03-08T02:15:09;34.60;;;14.07;;
4377;SDS011;2203;53.686;9.994;2024-03-08T02:17:35;26.87;;;13.40;;
4377;SDS011;2203;53.686;9.994;2024-03-08T02:20:01;29.17;;;14.53;;
4377;SDS011;2203;53.686;9.994;2024-03-08T02:22:30;30.97;;;14.60;;
4377;SDS011;2203;53.686;9.994;2024-03-08T02:24:58;31.43;;;15.80;;
4377;SDS011;2203;53.686;9.994;2024-03-08T02:27:26;31.20;;;14.03;;
4377;SDS011;2203;53.686;9.994;2024-03-08T02:29:54;34.43;;;14.70;;
4377;SDS011;2203;53.686;9.994;2024-03-08T02:32:23;27.90;;;13.13;;
4377;SDS011;2203;53.686;9.994;2024-03-08T02:34:49;33.00;;;14.17;;
4377;SDS011;2203;53.686;9.994;2024-03-08T02:37:14;27.20;;;14.33;;
4377;SDS011;2203;53.686;9.994;2024-03-08T02:39:40;31.67;;;16.10;;
4377;SDS011;2203;53.686;9.994;2024-03-08T02:42:06;27.17;;;14.10;;
4377;SDS011;2203;53.686;9.994;2024-03-08T02:44:32;27.70;;;14.73;;
4377;SDS011;2203;53.686;9.994;2024-03-08T02:46:58;26.43;;;13.23;;
4377;SDS011;2203;53.686;9.994;2024-03-08T02:49:24;31.50;;;14.37;;
4377;SDS011;2203;53.686;9.994;2024-03-08T02:51:51;34.80;;;13.97;;
4377;SDS011;2203;53.686;9.994;2024-03-08T02:54:17;29.87;;;14.37;;
4377;SDS011;2203;53.686;9.994;2024-03-08T02:56:42;30.03;;;15.23;;
4377;SDS011;2203;53.686;9.994;2024-03-08T02:59:08;28.87;;;13.53;;
4377;SDS011;2203;53.686;9.994;2024-03-08T03:01:33;30.97;;;14.33;;
4377;SDS011;2203;53.686;9.994;2024-03-08T03:03:59;27.93;;;14.63;;
4377;SDS011;2203;53.686;9.994;2024-03-08T03:06:25;30.80;;;14.30;;
4377;SDS011;2203;53.686;9.994;2024-03-08T03:08:51;39.47;;;15.57;;
4377;SDS011;2203;53.686;9.994;2024-03-08T03:11:16;35.37;;;13.90;;
4377;SDS011;2203;53.686;9.994;2024-03-08T03:13:42;26.47;;;13.57;;
4377;SDS011;2203;53.686;9.994;2024-03-08T03:16:16;28.90;;;14.00;;
4377;SDS011;2203;53.686;9.994;2024-03-08T03:18:45;27.00;;;13.40;;
4377;SDS011;2203;53.686;9.994;2024-03-08T03:21:11;30.57;;;14.60;;
4377;SDS011;2203;53.686;9.994;2024-03-08T03:23:38;32.77;;;14.80;;
4377;SDS011;2203;53.686;9.994;2024-03-08T03:26:07;27.03;;;14.17;;
4377;SDS011;2203;53.686;9.994;2024-03-08T03:28:42;28.63;;;12.87;;
4377;SDS011;2203;53.686;9.994;2024-03-08T03:31:08;23.83;;;12.40;;
4377;SDS011;2203;53.686;9.994;2024-03-08T03:33:39;24.43;;;13.43;;
4377;SDS011;2203;53.686;9.994;2024-03-08T03:36:04;30.77;;;13.90;;
4377;SDS011;2203;53.686;9.994;2024-03-08T03:38:30;29.33;;;13.60;;
4377;SDS011;2203;53.686;9.994;2024-03-08T03:40:55;28.87;;;12.57;;
4377;SDS011;2203;53.686;9.994;2024-03-08T03:43:23;30.50;;;13.77;;
4377;SDS011;2203;53.686;9.994;2024-03-08T03:45:48;28.47;;;12.60;;
4377;SDS011;2203;53.686;9.994;2024-03-08T03:48:14;28.83;;;14.10;;
4377;SDS011;2203;53.686;9.994;2024-03-08T03:50:39;24.77;;;13.23;;
4377;SDS011;2203;53.686;9.994;2024-03-08T03:53:04;27.63;;;13.47;;
4377;SDS011;2203;53.686;9.994;2024-03-08T03:55:33;30.97;;;14.40;;
4377;SDS011;2203;53.686;9.994;2024-03-08T03:57:58;29.50;;;13.43;;
4377;SDS011;2203;53.686;9.994;2024-03-08T04:00:26;29.60;;;13.27;;
4377;SDS011;2203;53.686;9.994;2024-03-08T04:02:52;30.07;;;13.43;;
4377;SDS011;2203;53.686;9.994;2024-03-08T04:05:17;32.23;;;14.40;;
4377;SDS011;2203;53.686;9.994;2024-03-08T04:07:42;28.57;;;15.20;;
4377;SDS011;2203;53.686;9.994;2024-03-08T04:10:09;30.23;;;14.53;;
4377;SDS011;2203;53.686;9.994;2024-03-08T04:12:36;36.60;;;15.67;;
4377;SDS011;2203;53.686;9.994;2024-03-08T04:15:02;28.23;;;14.30;;
4377;SDS011;2203;53.686;9.994;2024-03-08T04:17:27;28.63;;;13.33;;
4377;SDS011;2203;53.686;9.994;2024-03-08T04:19:53;33.43;;;14.30;;
4377;SDS011;2203;53.686;9.994;2024-03-08T04:22:19;27.73;;;13.53;;
4377;SDS011;2203;53.686;9.994;2024-03-08T04:24:44;32.40;;;14.47;;
4377;SDS011;2203;53.686;9.994;2024-03-08T04:27:11;33.53;;;14.87;;
4377;SDS011;2203;53.686;9.994;2024-03-08T04:29:36;30.63;;;13.90;;
4377;SDS011;2203;53.686;9.994;2024-03-08T04:32:05;30.40;;;15.13;;
4377;SDS011;2203;53.686;9.994;2024-03-08T04:34:31;27.93;;;12.87;;
4377;SDS011;2203;53.686;9.994;2024-03-08T04:36:57;30.13;;;14.30;;
4377;SDS011;2203;53.686;9.994;2024-03-08T04:39:23;25.80;;;12.60;;
4377;SDS011;2203;53.686;9.994;2024-03-08T04:41:49;33.33;;;14.50;;
4377;SDS011;2203;53.686;9.994;2024-03-08T04:44:14;28.40;;;14.33;;
4377;SDS011;2203;53.686;9.994;2024-03-08T04:46:40;46.20;;;13.80;;
4377;SDS011;2203;53.686;9.994;2024-03-08T04:49:06;26.00;;;13.73;;
4377;SDS011;2203;53.686;9.994;2024-03-08T04:51:32;29.83;;;14.27;;
4377;SDS011;2203;53.686;9.994;2024-03-08T04:53:58;29.93;;;13.37;;
4377;SDS011;2203;53.686;9.994;2024-03-08T04:56:24;30.70;;;14.70;;
4377;SDS011;2203;53.686;9.994;2024-03-08T04:58:50;24.73;;;12.93;;
4377;SDS011;2203;53.686;9.994;2024-03-08T05:01:16;24.77;;;13.97;;
4377;SDS011;2203;53.686;9.994;2024-03-08T05:03:41;31.27;;;14.87;;
4377;SDS011;2203;53.686;9.994;2024-03-08T05:06:07;29.23;;;14.00;;
4377;SDS011;2203;53.686;9.994;2024-03-08T05:08:32;32.60;;;14.37;;
4377;SDS011;2203;53.686;9.994;2024-03-08T05:10:58;26.10;;;13.53;;
4377;SDS011;2203;53.686;9.994;2024-03-08T05:13:25;24.93;;;13.63;;
4377;SDS011;2203;53.686;9.994;2024-03-08T05:15:52;28.17;;;14.23;;
4377;SDS011;2203;53.686;9.994;2024-03-08T05:18:17;30.47;;;14.50;;
4377;SDS011;2203;53.686;9.994;2024-03-08T05:20:43;30.17;;;14.60;;
4377;SDS011;2203;53.686;9.994;2024-03-08T05:23:09;36.03;;;15.13;;
4377;SDS011;2203;53.686;9.994;2024-03-08T05:25:40;35.70;;;14.60;;
4377;SDS011;2203;53.686;9.994;2024-03-08T05:28:06;31.30;;;15.40;;
4377;SDS011;2203;53.686;9.994;2024-03-08T05:30:35;31.80;;;14.97;;
4377;SDS011;2203;53.686;9.994;2024-03-08T05:33:01;30.27;;;14.83;;
4377;SDS011;2203;53.686;9.994;2024-03-08T05:35:26;31.47;;;14.77;;
4377;SDS011;2203;53.686;9.994;2024-03-08T05:37:52;31.30;;;15.57;;
4377;SDS011;2203;53.686;9.994;2024-03-08T05:40:17;28.90;;;14.67;;
4377;SDS011;2203;53.686;9.994;2024-03-08T05:42:44;32.80;;;14.37;;
4377;SDS011;2203;53.686;9.994;2024-03-08T05:45:09;36.80;;;15.57;;
4377;SDS011;2203;53.686;9.994;2024-03-08T05:47:36;43.03;;;16.33;;
4377;SDS011;2203;53.686;9.994;2024-03-08T05:50:01;38.17;;;17.17;;
4377;SDS011;2203;53.686;9.994;2024-03-08T05:52:27;37.83;;;17.80;;
4377;SDS011;2203;53.686;9.994;2024-03-08T05:54:52;38.47;;;17.23;;
4377;SDS011;2203;53.686;9.994;2024-03-08T05:57:18;35.00;;;16.60;;
4377;SDS011;2203;53.686;9.994;2024-03-08T05:59:43;44.50;;;18.90;;
4377;SDS011;2203;53.686;9.994;2024-03-08T06:02:09;41.90;;;17.70;;
4377;SDS011;2203;53.686;9.994;2024-03-08T06:04:35;37.37;;;17.07;;
4377;SDS011;2203;53.686;9.994;2024-03-08T06:07:01;35.70;;;16.83;;
4377;SDS011;2203;53.686;9.994;2024-03-08T06:09:28;34.40;;;17.30;;
4377;SDS011;2203;53.686;9.994;2024-03-08T06:11:55;39.17;;;18.50;;
4377;SDS011;2203;53.686;9.994;2024-03-08T06:14:33;38.23;;;18.10;;
4377;SDS011;2203;53.686;9.994;2024-03-08T06:17:03;43.73;;;17.53;;
4377;SDS011;2203;53.686;9.994;2024-03-08T06:19:32;39.00;;;18.77;;
4377;SDS011;2203;53.686;9.994;2024-03-08T06:21:59;38.67;;;17.93;;
4377;SDS011;2203;53.686;9.994;2024-03-08T06:24:28;38.37;;;17.60;;
4377;SDS011;2203;53.686;9.994;2024-03-08T06:26:57;38.67;;;18.00;;
4377;SDS011;2203;53.686;9.994;2024-03-08T06:29:22;41.83;;;17.27;;
4377;SDS011;2203;53.686;9.994;2024-03-08T06:31:48;34.27;;;17.90;;
4377;SDS011;2203;53.686;9.994;2024-03-08T06:34:15;39.57;;;19.03;;
4377;SDS011;2203;53.686;9.994;2024-03-08T06:36:40;44.07;;;19.07;;
4377;SDS011;2203;53.686;9.994;2024-03-08T06:39:06;36.73;;;18.30;;
4377;SDS011;2203;53.686;9.994;2024-03-08T06:41:38;36.47;;;18.00;;
4377;SDS011;2203;53.686;9.994;2024-03-08T06:44:03;36.50;;;17.77;;
4377;SDS011;2203;53.686;9.994;2024-03-08T06:46:29;52.97;;;20.53;;
4377;SDS011;2203;53.686;9.994;2024-03-08T06:48:55;38.70;;;17.73;;
4377;SDS011;2203;53.686;9.994;2024-03-08T06:51:21;41.63;;;19.33;;
4377;SDS011;2203;53.686;9.994;2024-03-08T06:53:47;37.90;;;16.73;;
4377;SDS011;2203;53.686;9.994;2024-03-08T06:56:14;39.20;;;18.10;;
4377;SDS011;2203;53.686;9.994;2024-03-08T06:58:40;35.97;;;18.40;;
4377;SDS011;2203;53.686;9.994;2024-03-08T07:01:07;41.57;;;18.67;;
4377;SDS011;2203;53.686;9.994;2024-03-08T07:03:41;38.60;;;18.40;;
4377;SDS011;2203;53.686;9.994;2024-03-08T07:06:10;40.30;;;19.10;;
4377;SDS011;2203;53.686;9.994;2024-03-08T07:08:36;42.93;;;19.03;;
4377;SDS011;2203;53.686;9.994;2024-03-08T07:11:02;44.97;;;19.67;;
4377;SDS011;2203;53.686;9.994;2024-03-08T07:13:28;40.20;;;18.23;;
4377;SDS011;2203;53.686;9.994;2024-03-08T07:16:09;38.10;;;19.23;;
4377;SDS011;2203;53.686;9.994;2024-03-08T07:18:37;40.33;;;18.20;;
4377;SDS011;2203;53.686;9.994;2024-03-08T07:21:09;35.47;;;16.80;;
4377;SDS011;2203;53.686;9.994;2024-03-08T07:23:41;36.83;;;17.27;;
4377;SDS011;2203;53.686;9.994;2024-03-08T07:26:26;34.70;;;17.73;;
4377;SDS011;2203;53.686;9.994;2024-03-08T07:28:52;36.47;;;17.63;;
4377;SDS011;2203;53.686;9.994;2024-03-08T07:31:24;35.97;;;18.80;;
4377;SDS011;2203;53.686;9.994;2024-03-08T07:34:02;36.83;;;17.70;;
4377;SDS011;2203;53.686;9.994;2024-03-08T07:36:32;42.10;;;18.43;;
4377;SDS011;2203;53.686;9.994;2024-03-08T07:39:00;36.60;;;18.40;;
4377;SDS011;2203;53.686;9.994;2024-03-08T07:41:26;35.50;;;16.73;;
4377;SDS011;2203;53.686;9.994;2024-03-08T07:43:52;33.70;;;17.43;;
4377;SDS011;2203;53.686;9.994;2024-03-08T07:46:18;32.97;;;16.87;;
4377;SDS011;2203;53.686;9.994;2024-03-08T07:48:46;46.20;;;18.00;;
4377;SDS011;2203;53.686;9.994;2024-03-08T07:51:11;40.10;;;19.00;;
4377;SDS011;2203;53.686;9.994;2024-03-08T07:53:37;42.17;;;19.73;;
4377;SDS011;2203;53.686;9.994;2024-03-08T07:56:03;37.80;;;17.40;;
4377;SDS011;2203;53.686;9.994;2024-03-08T07:58:30;37.63;;;18.40;;
4377;SDS011;2203;53.686;9.994;2024-03-08T08:00:55;39.10;;;18.60;;
4377;SDS011;2203;53.686;9.994;2024-03-08T08:03:21;37.20;;;18.07;;
4377;SDS011;2203;53.686;9.994;2024-03-08T08:05:46;35.43;;;18.27;;
4377;SDS011;2203;53.686;9.994;2024-03-08T08:08:13;42.40;;;19.60;;
4377;SDS011;2203;53.686;9.994;2024-03-08T08:10:38;40.67;;;19.90;;
4377;SDS011;2203;53.686;9.994;2024-03-08T08:13:04;37.77;;;19.50;;
4377;SDS011;2203;53.686;9.994;2024-03-08T08:15:29;46.00;;;19.83;;
4377;SDS011;2203;53.686;9.994;2024-03-08T08:17:55;38.47;;;19.20;;
4377;SDS011;2203;53.686;9.994;2024-03-08T08:20:20;41.97;;;20.77;;
4377;SDS011;2203;53.686;9.994;2024-03-08T08:22:47;31.70;;;17.30;;
4377;SDS011;2203;53.686;9.994;2024-03-08T08:25:13;39.93;;;18.63;;
4377;SDS011;2203;53.686;9.994;2024-03-08T08:27:40;40.73;;;19.67;;
4377;SDS011;2203;53.686;9.994;2024-03-08T08:30:07;39.63;;;19.97;;
4377;SDS011;2203;53.686;9.994;2024-03-08T08:32:36;42.00;;;18.90;;
4377;SDS011;2203;53.686;9.994;2024-03-08T08:35:03;37.70;;;18.20;;
4377;SDS011;2203;53.686;9.994;2024-03-08T08:37:30;33.87;;;18.00;;
4377;SDS011;2203;53.686;9.994;2024-03-08T08:39:56;41.70;;;20.47;;
4377;SDS011;2203;53.686;9.994;2024-03-08T08:42:22;40.90;;;18.80;;
4377;SDS011;2203;53.686;9.994;2024-03-08T08:44:48;37.97;;;18.90;;
4377;SDS011;2203;53.686;9.994;2024-03-08T08:47:15;41.97;;;19.97;;
4377;SDS011;2203;53.686;9.994;2024-03-08T08:49:44;36.60;;;19.70;;
4377;SDS011;2203;53.686;9.994;2024-03-08T08:52:11;43.33;;;20.43;;
4377;SDS011;2203;53.686;9.994;2024-03-08T08:54:36;38.43;;;18.90;;
4377;SDS011;2203;53.686;9.994;2024-03-08T08:57:02;40.43;;;20.43;;
4377;SDS011;2203;53.686;9.994;2024-03-08T08:59:32;36.53;;;18.07;;
4377;SDS011;2203;53.686;9.994;2024-03-08T09:01:58;42.33;;;19.60;;
4377;SDS011;2203;53.686;9.994;2024-03-08T09:04:23;42.63;;;21.10;;
4377;SDS011;2203;53.686;9.994;2024-03-08T09:06:49;39.03;;;18.93;;
4377;SDS011;2203;53.686;9.994;2024-03-08T09:09:14;38.67;;;19.47;;
4377;SDS011;2203;53.686;9.994;2024-03-08T09:11:42;42.90;;;19.97;;
4377;SDS011;2203;53.686;9.994;2024-03-08T09:14:08;37.00;;;18.20;;
4377;SDS011;2203;53.686;9.994;2024-03-08T09:16:37;45.10;;;21.40;;
4377;SDS011;2203;53.686;9.994;2024-03-08T09:19:07;37.10;;;17.50;;
4377;SDS011;2203;53.686;9.994;2024-03-08T09:21:36;45.70;;;19.43;;
4377;SDS011;2203;53.686;9.994;2024-03-08T09:24:08;38.97;;;18.53;;
4377;SDS011;2203;53.686;9.994;2024-03-08T09:26:33;36.23;;;17.43;;
4377;SDS011;2203;53.686;9.994;2024-03-08T09:28:59;38.83;;;18.80;;
4377;SDS011;2203;53.686;9.994;2024-03-08T09:31:25;36.60;;;17.33;;
4377;SDS011;2203;53.686;9.994;2024-03-08T09:33:51;37.57;;;18.23;;
4377;SDS011;2203;53.686;9.994;2024-03-08T09:36:16;42.20;;;19.70;;
4377;SDS011;2203;53.686;9.994;2024-03-08T09:38:42;42.37;;;19.97;;
4377;SDS011;2203;53.686;9.994;2024-03-08T09:41:07;42.93;;;19.53;;
4377;SDS011;2203;53.686;9.994;2024-03-08T09:43:35;37.77;;;18.17;;
4377;SDS011;2203;53.686;9.994;2024-03-08T09:46:01;36.30;;;19.00;;
4377;SDS011;2203;53.686;9.994;2024-03-08T09:48:28;39.57;;;20.00;;
4377;SDS011;2203;53.686;9.994;2024-03-08T09:50:54;38.93;;;18.80;;
4377;SDS011;2203;53.686;9.994;2024-03-08T09:53:20;42.00;;;19.20;;
4377;SDS011;2203;53.686;9.994;2024-03-08T09:55:47;47.13;;;20.20;;
4377;SDS011;2203;53.686;9.994;2024-03-08T09:58:14;38.20;;;19.10;;
4377;SDS011;2203;53.686;9.994;2024-03-08T10:00:46;41.67;;;19.53;;
4377;SDS011;2203;53.686;9.994;2024-03-08T10:03:12;37.80;;;20.13;;
4377;SDS011;2203;53.686;9.994;2024-03-08T10:05:39;37.70;;;18.10;;
4377;SDS011;2203;53.686;9.994;2024-03-08T10:08:06;40.90;;;20.13;;
4377;SDS011;2203;53.686;9.994;2024-03-08T10:10:33;34.63;;;18.23;;
4377;SDS011;2203;53.686;9.994;2024-03-08T10:12:59;37.40;;;18.77;;
4377;SDS011;2203;53.686;9.994;2024-03-08T10:15:26;39.67;;;19.50;;
4377;SDS011;2203;53.686;9.994;2024-03-08T10:17:55;41.77;;;20.20;;
4377;SDS011;2203;53.686;9.994;2024-03-08T10:20:21;36.90;;;19.07;;
4377;SDS011;2203;53.686;9.994;2024-03-08T10:22:46;35.70;;;18.47;;
4377;SDS011;2203;53.686;9.994;2024-03-08T10:25:12;40.50;;;19.43;;
4377;SDS011;2203;53.686;9.994;2024-03-08T10:27:38;40.03;;;18.87;;
4377;SDS011;2203;53.686;9.994;2024-03-08T10:30:06;34.40;;;17.90;;
4377;SDS011;2203;53.686;9.994;2024-03-08T10:32:33;37.40;;;18.30;;
4377;SDS011;2203;53.686;9.994;2024-03-08T10:34:58;40.37;;;19.93;;
4377;SDS011;2203;53.686;9.994;2024-03-08T10:37:24;36.23;;;18.60;;
4377;SDS011;2203;53.686;9.994;2024-03-08T10:40:24;39.70;;;18.30;;
4377;SDS011;2203;53.686;9.994;2024-03-08T10:42:55;34.07;;;18.53;;
4377;SDS011;2203;53.686;9.994;2024-03-08T10:48:26;35.13;;;16.93;;
4377;SDS011;2203;53.686;9.994;2024-03-08T10:50:57;38.40;;;17.23;;
4377;SDS011;2203;53.686;9.994;2024-03-08T10:53:28;44.87;;;18.13;;
4377;SDS011;2203;53.686;9.994;2024-03-08T10:55:57;38.60;;;17.53;;
4377;SDS011;2203;53.686;9.994;2024-03-08T10:58:27;30.97;;;17.17;;
4377;SDS011;2203;53.686;9.994;2024-03-08T11:00:53;37.27;;;18.87;;
4377;SDS011;2203;53.686;9.994;2024-03-08T11:06:07;31.00;;;16.13;;
4377;SDS011;2203;53.686;9.994;2024-03-08T11:08:35;36.43;;;17.83;;
4377;SDS011;2203;53.686;9.994;2024-03-08T11:11:04;33.53;;;16.73;;
4377;SDS011;2203;53.686;9.994;2024-03-08T11:13:33;34.00;;;16.90;;
4377;SDS011;2203;53.686;9.994;2024-03-08T11:16:00;36.77;;;17.07;;
4377;SDS011;2203;53.686;9.994;2024-03-08T11:18:26;33.43;;;16.87;;
4377;SDS011;2203;53.686;9.994;2024-03-08T11:20:55;33.77;;;16.47;;
4377;SDS011;2203;53.686;9.994;2024-03-08T11:23:23;31.47;;;16.13;;
4377;SDS011;2203;53.686;9.994;2024-03-08T11:25:51;33.27;;;16.60;;
4377;SDS011;2203;53.686;9.994;2024-03-08T11:28:21;31.00;;;16.30;;
4377;SDS011;2203;53.686;9.994;2024-03-08T11:33:24;28.90;;;15.60;;
4377;SDS011;2203;53.686;9.994;2024-03-08T11:38:44;33.57;;;16.60;;
4377;SDS011;2203;53.686;9.994;2024-03-08T11:41:09;32.10;;;15.90;;
4377;SDS011;2203;53.686;9.994;2024-03-08T11:43:39;31.80;;;16.13;;
4377;SDS011;2203;53.686;9.994;2024-03-08T11:46:10;30.60;;;15.17;;
4377;SDS011;2203;53.686;9.994;2024-03-08T11:48:38;32.70;;;14.93;;
4377;SDS011;2203;53.686;9.994;2024-03-08T11:51:11;38.17;;;15.10;;
4377;SDS011;2203;53.686;9.994;2024-03-08T11:53:38;31.30;;;14.27;;
4377;SDS011;2203;53.686;9.994;2024-03-08T11:56:08;33.33;;;16.23;;
4377;SDS011;2203;53.686;9.994;2024-03-08T11:58:34;29.77;;;16.37;;
4377;SDS011;2203;53.686;9.994;2024-03-08T12:01:09;24.90;;;13.80;;
4377;SDS011;2203;53.686;9.994;2024-03-08T12:03:41;30.17;;;13.10;;
4377;SDS011;2203;53.686;9.994;2024-03-08T12:06:09;35.63;;;14.60;;
4377;SDS011;2203;53.686;9.994;2024-03-08T12:08:35;31.87;;;14.60;;
4377;SDS011;2203;53.686;9.994;2024-03-08T12:11:03;28.63;;;13.93;;
4377;SDS011;2203;53.686;9.994;2024-03-08T12:13:32;30.50;;;14.13;;
4377;SDS011;2203;53.686;9.994;2024-03-08T12:15:59;27.33;;;14.27;;
4377;SDS011;2203;53.686;9.994;2024-03-08T12:18:25;29.03;;;13.93;;
4377;SDS011;2203;53.686;9.994;2024-03-08T12:21:03;31.90;;;15.30;;
4377;SDS011;2203;53.686;9.994;2024-03-08T12:23:35;27.00;;;13.23;;
4377;SDS011;2203;53.686;9.994;2024-03-08T12:28:41;25.73;;;14.53;;
4377;SDS011;2203;53.686;9.994;2024-03-08T12:31:07;25.63;;;14.00;;
4377;SDS011;2203;53.686;9.994;2024-03-08T12:33:36;33.83;;;15.03;;
4377;SDS011;2203;53.686;9.994;2024-03-08T12:36:17;31.33;;;15.10;;
4377;SDS011;2203;53.686;9.994;2024-03-08T12:38:44;26.67;;;14.03;;
4377;SDS011;2203;53.686;9.994;2024-03-08T12:41:12;28.83;;;14.90;;
4377;SDS011;2203;53.686;9.994;2024-03-08T12:43:41;31.03;;;15.43;;
4377;SDS011;2203;53.686;9.994;2024-03-08T12:46:20;29.53;;;15.63;;
4377;SDS011;2203;53.686;9.994;2024-03-08T12:48:55;32.80;;;15.10;;
4377;SDS011;2203;53.686;9.994;2024-03-08T12:51:20;32.50;;;15.37;;
4377;SDS011;2203;53.686;9.994;2024-03-08T12:53:46;28.63;;;14.83;;
4377;SDS011;2203;53.686;9.994;2024-03-08T12:59:07;30.37;;;14.83;;
4377;SDS011;2203;53.686;9.994;2024-03-08T13:01:35;24.43;;;14.00;;
4377;SDS011;2203;53.686;9.994;2024-03-08T13:04:02;31.17;;;15.30;;
4377;SDS011;2203;53.686;9.994;2024-03-08T13:06:29;38.40;;;16.10;;
4377;SDS011;2203;53.686;9.994;2024-03-08T13:08:56;28.00;;;16.17;;
4377;SDS011;2203;53.686;9.994;2024-03-08T13:11:22;32.87;;;16.43;;
4377;SDS011;2203;53.686;9.994;2024-03-08T13:13:48;31.47;;;15.73;;
4377;SDS011;2203;53.686;9.994;2024-03-08T13:16:14;35.23;;;15.83;;
4377;SDS011;2203;53.686;9.994;2024-03-08T13:18:40;35.40;;;15.40;;
4377;SDS011;2203;53.686;9.994;2024-03-08T13:21:09;28.43;;;14.70;;
4377;SDS011;2203;53.686;9.994;2024-03-08T13:23:36;27.90;;;14.13;;
4377;SDS011;2203;53.686;9.994;2024-03-08T13:26:08;30.03;;;14.60;;
4377;SDS011;2203;53.686;9.994;2024-03-08T13:28:37;26.97;;;15.37;;
4377;SDS011;2203;53.686;9.994;2024-03-08T13:31:06;30.83;;;14.73;;
4377;SDS011;2203;53.686;9.994;2024-03-08T13:33:32;33.97;;;14.50;;
4377;SDS011;2203;53.686;9.994;2024-03-08T13:36:01;28.67;;;15.20;;
4377;SDS011;2203;53.686;9.994;2024-03-08T13:38:31;27.90;;;14.70;;
4377;SDS011;2203;53.686;9.994;2024-03-08T13:41:01;26.20;;;14.70;;
4377;SDS011;2203;53.686;9.994;2024-03-08T13:43:27;26.97;;;13.80;;
4377;SDS011;2203;53.686;9.994;2024-03-08T13:45:53;37.90;;;14.63;;
4377;SDS011;2203;53.686;9.994;2024-03-08T13:48:19;27.10;;;13.97;;
4377;SDS011;2203;53.686;9.994;2024-03-08T13:50:47;26.40;;;13.10;;
4377;SDS011;2203;53.686;9.994;2024-03-08T13:53:13;24.37;;;13.50;;
4377;SDS011;2203;53.686;9.994;2024-03-08T13:55:39;36.10;;;14.17;;
4377;SDS011;2203;53.686;9.994;2024-03-08T13:58:05;31.93;;;14.47;;
4377;SDS011;2203;53.686;9.994;2024-03-08T14:00:34;26.10;;;14.50;;
4377;SDS011;2203;53.686;9.994;2024-03-08T14:03:01;31.17;;;15.53;;
4377;SDS011;2203;53.686;9.994;2024-03-08T14:05:30;30.73;;;14.67;;
4377;SDS011;2203;53.686;9.994;2024-03-08T14:07:59;25.83;;;14.40;;
4377;SDS011;2203;53.686;9.994;2024-03-08T14:10:28;29.13;;;13.47;;
4377;SDS011;2203;53.686;9.994;2024-03-08T14:12:56;25.17;;;13.60;;
4377;SDS011;2203;53.686;9.994;2024-03-08T14:15:22;31.33;;;14.00;;
4377;SDS011;2203;53.686;9.994;2024-03-08T14:17:54;32.40;;;15.03;;
4377;SDS011;2203;53.686;9.994;2024-03-08T14:20:23;26.73;;;14.37;;
4377;SDS011;2203;53.686;9.994;2024-03-08T14:22:52;24.00;;;13.40;;
4377;SDS011;2203;53.686;9.994;2024-03-08T14:25:21;31.13;;;14.50;;
4377;SDS011;2203;53.686;9.994;2024-03-08T14:27:48;30.07;;;14.47;;
4377;SDS011;2203;53.686;9.994;2024-03-08T14:30:14;34.80;;;14.93;;
4377;SDS011;2203;53.686;9.994;2024-03-08T14:32:57;36.20;;;15.57;;
4377;SDS011;2203;53.686;9.994;2024-03-08T14:35:26;28.80;;;14.50;;
4377;SDS011;2203;53.686;9.994;2024-03-08T14:37:51;27.30;;;13.60;;
4377;SDS011;2203;53.686;9.994;2024-03-08T14:40:17;32.03;;;15.33;;
4377;SDS011;2203;53.686;9.994;2024-03-08T14:42:47;33.03;;;14.17;;
4377;SDS011;2203;53.686;9.994;2024-03-08T14:45:14;25.93;;;12.87;;
4377;SDS011;2203;53.686;9.994;2024-03-08T14:47:40;27.70;;;14.00;;
4377;SDS011;2203;53.686;9.994;2024-03-08T14:50:05;26.80;;;13.50;;
4377;SDS011;2203;53.686;9.994;2024-03-08T14:52:32;31.60;;;13.80;;
4377;SDS011;2203;53.686;9.994;2024-03-08T14:54:57;33.23;;;13.90;;
4377;SDS011;2203;53.686;9.994;2024-03-08T14:57:23;29.80;;;14.77;;
4377;SDS011;2203;53.686;9.994;2024-03-08T14:59:48;27.93;;;13.10;;
4377;SDS011;2203;53.686;9.994;2024-03-08T15:02:15;30.80;;;13.70;;
4377;SDS011;2203;53.686;9.994;2024-03-08T15:04:42;28.83;;;13.60;;